sensor_id;sensor_type;location;lat;lon;timestamp;pressure;altitude;pressure_sealevel;temperature;humidity
80712;BME280;70078;51.596;5.678;2024-02-04T00:00:07;102193.00;;;9.76;100.00
80712;BME280;70078;51.596;5.678;2024-02-04T00:02:32;102267.97;;;10.26;100.00
80712;BME280;70078;51.596;5.678;2024-02-04T00:04:58;102135.81;;;9.37;100.00
80712;BME280;70078;51.596;5.678;2024-02-04T00:07:23;102280.22;;;10.28;100.00
80712;BME280;70078;51.596;5.678;2024-02-04T00:09:53;102272.59;;;10.24;100.00
80712;BME280;70078;51.596;5.678;2024-02-04T00:12:19;102201.69;;;9.78;100.00
80712;BME280;70078;51.596;5.678;2024-02-04T00:14:44;102230.47;;;9.95;100.00
80712;BME280;70078;51.596;5.678;2024-02-04T00:17:16;102281.66;;;10.21;100.00
80712;BME280;70078;51.596;5.678;2024-02-04T00:19:44;102241.81;;;10.09;100.00
80712;BME280;70078;51.596;5.678;2024-02-04T00:22:09;102216.69;;;9.90;100.00
80712;BME280;70078;51.596;5.678;2024-02-04T00:24:35;102279.09;;;10.31;100.00
80712;BME280;70078;51.596;5.678;2024-02-04T00:27:07;102215.59;;;9.93;100.00
80712;BME280;70078;51.596;5.678;2024-02-04T00:29:34;102173.50;;;9.64;100.00
80712;BME280;70078;51.596;5.678;2024-02-04T00:32:04;102176.03;;;9.66;100.00
80712;BME280;70078;51.596;5.678;2024-02-04T00:34:29;102183.81;;;9.69;100.00
80712;BME280;70078;51.596;5.678;2024-02-04T00:36:55;102155.16;;;9.50;100.00
80712;BME280;70078;51.596;5.678;2024-02-04T00:39:20;102168.44;;;9.61;100.00
80712;BME280;70078;51.596;5.678;2024-02-04T00:41:49;102238.47;;;9.95;100.00
80712;BME280;70078;51.596;5.678;2024-02-04T00:44:14;102193.44;;;9.81;100.00
80712;BME280;70078;51.596;5.678;2024-02-04T00:46:40;102185.69;;;9.78;100.00
80712;BME280;70078;51.596;5.678;2024-02-04T00:49:05;102280.78;;;10.32;100.00
80712;BME280;70078;51.596;5.678;2024-02-04T00:51:31;102217.53;;;9.91;100.00
80712;BME280;70078;51.596;5.678;2024-02-04T00:53:58;102210.41;;;9.80;100.00
80712;BME280;70078;51.596;5.678;2024-02-04T00:56:23;102284.16;;;10.34;100.00
80712;BME280;70078;51.596;5.678;2024-02-04T00:58:51;102306.97;;;10.38;100.00
80712;BME280;70078;51.596;5.678;2024-02-04T01:01:17;102186.72;;;9.66;100.00
80712;BME280;70078;51.596;5.678;2024-02-04T01:03:44;102301.88;;;10.35;100.00
80712;BME280;70078;51.596;5.678;2024-02-04T01:06:10;102242.09;;;10.06;100.00
80712;BME280;70078;51.596;5.678;2024-02-04T01:08:35;102173.16;;;9.69;100.00
80712;BME280;70078;51.596;5.678;2024-02-04T01:11:04;102219.94;;;9.94;100.00
80712;BME280;70078;51.596;5.678;2024-02-04T01:13:32;102193.91;;;9.86;100.00
80712;BME280;70078;51.596;5.678;2024-02-04T01:16:01;102286.47;;;10.39;100.00
80712;BME280;70078;51.596;5.678;2024-02-04T01:18:26;102276.34;;;10.42;100.00
80712;BME280;70078;51.596;5.678;2024-02-04T01:20:52;102222.22;;;9.98;100.00
80712;BME280;70078;51.596;5.678;2024-02-04T01:23:19;102276.34;;;10.42;100.00
80712;BME280;70078;51.596;5.678;2024-02-04T01:25:45;102242.94;;;10.27;100.00
80712;BME280;70078;51.596;5.678;2024-02-04T01:28:11;102261.41;;;10.19;100.00
80712;BME280;70078;51.596;5.678;2024-02-04T01:30:36;102274.09;;;10.38;100.00
80712;BME280;70078;51.596;5.678;2024-02-04T01:33:03;102196.72;;;9.85;100.00
80712;BME280;70078;51.596;5.678;2024-02-04T01:35:28;102285.34;;;10.41;100.00
80712;BME280;70078;51.596;5.678;2024-02-04T01:37:56;102191.72;;;9.91;100.00
80712;BME280;70078;51.596;5.678;2024-02-04T01:40:21;102249.88;;;10.30;100.00
80712;BME280;70078;51.596;5.678;2024-02-04T01:42:47;102269.59;;;10.38;100.00
80712;BME280;70078;51.596;5.678;2024-02-04T01:45:12;102280.19;;;10.49;100.00
80712;BME280;70078;51.596;5.678;2024-02-04T01:47:38;102275.84;;;10.48;100.00
80712;BME280;70078;51.596;5.678;2024-02-04T01:50:04;102239.91;;;10.32;100.00
80712;BME280;70078;51.596;5.678;2024-02-04T01:52:36;102200.91;;;9.98;100.00
80712;BME280;70078;51.596;5.678;2024-02-04T01:55:03;102218.00;;;10.17;100.00
80712;BME280;70078;51.596;5.678;2024-02-04T01:57:33;102279.97;;;10.52;100.00
80712;BME280;70078;51.596;5.678;2024-02-04T02:00:00;102271.09;;;10.52;100.00
80712;BME280;70078;51.596;5.678;2024-02-04T02:02:27;102194.91;;;10.06;100.00
80712;BME280;70078;51.596;5.678;2024-02-04T02:04:53;102263.53;;;10.57;100.00
80712;BME280;70078;51.596;5.678;2024-02-04T02:07:18;102197.09;;;10.01;100.00
80712;BME280;70078;51.596;5.678;2024-02-04T02:09:47;102172.22;;;9.80;100.00
80712;BME280;70078;51.596;5.678;2024-02-04T02:14:52;102212.97;;;10.02;100.00
80712;BME280;70078;51.596;5.678;2024-02-04T02:17:20;102279.25;;;10.50;100.00
80712;BME280;70078;51.596;5.678;2024-02-04T02:20:06;102281.91;;;10.50;100.00
80712;BME280;70078;51.596;5.678;2024-02-04T02:22:49;102226.47;;;10.22;100.00
80712;BME280;70078;51.596;5.678;2024-02-04T02:25:18;102269.09;;;10.44;100.00
80712;BME280;70078;51.596;5.678;2024-02-04T02:27:50;102276.88;;;10.57;100.00
80712;BME280;70078;51.596;5.678;2024-02-04T02:30:16;102237.19;;;10.43;100.00
80712;BME280;70078;51.596;5.678;2024-02-04T02:32:44;102170.28;;;10.02;100.00
80712;BME280;70078;51.596;5.678;2024-02-04T02:35:12;102158.25;;;9.87;100.00
80712;BME280;70078;51.596;5.678;2024-02-04T02:37:59;102268.03;;;10.56;100.00
80712;BME280;70078;51.596;5.678;2024-02-04T02:43:02;102228.25;;;10.33;100.00
80712;BME280;70078;51.596;5.678;2024-02-04T02:45:28;102153.91;;;9.86;100.00
80712;BME280;70078;51.596;5.678;2024-02-04T02:47:54;102257.63;;;10.53;100.00
80712;BME280;70078;51.596;5.678;2024-02-04T02:50:20;102254.25;;;10.51;100.00
80712;BME280;70078;51.596;5.678;2024-02-04T02:52:45;102227.59;;;10.40;100.00
80712;BME280;70078;51.596;5.678;2024-02-04T02:55:14;102260.41;;;10.52;100.00
80712;BME280;70078;51.596;5.678;2024-02-04T02:57:40;102226.19;;;10.36;100.00
80712;BME280;70078;51.596;5.678;2024-02-04T03:00:05;102259.81;;;10.48;100.00
80712;BME280;70078;51.596;5.678;2024-02-04T03:02:32;102132.53;;;9.65;100.00
80712;BME280;70078;51.596;5.678;2024-02-04T03:04:57;102255.75;;;10.44;100.00
80712;BME280;70078;51.596;5.678;2024-02-04T03:07:23;102240.69;;;10.43;100.00
80712;BME280;70078;51.596;5.678;2024-02-04T03:09:48;102200.81;;;10.10;100.00
80712;BME280;70078;51.596;5.678;2024-02-04T03:12:14;102239.41;;;10.38;100.00
80712;BME280;70078;51.596;5.678;2024-02-04T03:14:39;102244.59;;;10.39;100.00
80712;BME280;70078;51.596;5.678;2024-02-04T03:17:05;102203.69;;;10.18;100.00
80712;BME280;70078;51.596;5.678;2024-02-04T03:19:30;102256.72;;;10.43;100.00
80712;BME280;70078;51.596;5.678;2024-02-04T03:21:56;102174.97;;;9.89;100.00
80712;BME280;70078;51.596;5.678;2024-02-04T03:24:21;102249.94;;;10.39;100.00
80712;BME280;70078;51.596;5.678;2024-02-04T03:26:47;102115.13;;;9.61;100.00
80712;BME280;70078;51.596;5.678;2024-02-04T03:29:12;102198.22;;;9.98;100.00
80712;BME280;70078;51.596;5.678;2024-02-04T03:31:38;102252.53;;;10.30;100.00
80712;BME280;70078;51.596;5.678;2024-02-04T03:34:03;102175.38;;;9.85;100.00
80712;BME280;70078;51.596;5.678;2024-02-04T03:36:30;102122.59;;;9.47;100.00
80712;BME280;70078;51.596;5.678;2024-02-04T03:38:56;102253.53;;;10.28;100.00
80712;BME280;70078;51.596;5.678;2024-02-04T03:41:22;102106.19;;;9.30;100.00
80712;BME280;70078;51.596;5.678;2024-02-04T03:43:47;102238.88;;;10.23;100.00
80712;BME280;70078;51.596;5.678;2024-02-04T03:46:14;102203.94;;;9.94;100.00
80712;BME280;70078;51.596;5.678;2024-02-04T03:48:39;102234.72;;;9.98;100.00
80712;BME280;70078;51.596;5.678;2024-02-04T03:51:05;102226.59;;;9.99;100.00
80712;BME280;70078;51.596;5.678;2024-02-04T03:53:30;102236.47;;;10.09;100.00
80712;BME280;70078;51.596;5.678;2024-02-04T03:55:55;102247.16;;;10.09;100.00
80712;BME280;70078;51.596;5.678;2024-02-04T03:58:21;102192.72;;;9.79;100.00
80712;BME280;70078;51.596;5.678;2024-02-04T04:00:54;102127.22;;;9.33;100.00
80712;BME280;70078;51.596;5.678;2024-02-04T04:03:20;102184.53;;;9.71;100.00
80712;BME280;70078;51.596;5.678;2024-02-04T04:05:45;102255.63;;;10.14;100.00
80712;BME280;70078;51.596;5.678;2024-02-04T04:08:10;102263.88;;;10.11;100.00
80712;BME280;70078;51.596;5.678;2024-02-04T04:10:36;102199.16;;;9.77;100.00
80712;BME280;70078;51.596;5.678;2024-02-04T04:13:01;102244.84;;;10.04;100.00
80712;BME280;70078;51.596;5.678;2024-02-04T04:15:26;102210.91;;;9.74;100.00
80712;BME280;70078;51.596;5.678;2024-02-04T04:17:52;102170.56;;;9.47;100.00
80712;BME280;70078;51.596;5.678;2024-02-04T04:20:17;102272.72;;;10.11;100.00
80712;BME280;70078;51.596;5.678;2024-02-04T04:22:43;102217.19;;;9.84;100.00
80712;BME280;70078;51.596;5.678;2024-02-04T04:25:11;102201.38;;;9.71;100.00
80712;BME280;70078;51.596;5.678;2024-02-04T04:27:36;102268.78;;;10.06;100.00
80712;BME280;70078;51.596;5.678;2024-02-04T04:30:02;102165.38;;;9.66;100.00
80712;BME280;70078;51.596;5.678;2024-02-04T04:32:27;102241.31;;;10.15;100.00
80712;BME280;70078;51.596;5.678;2024-02-04T04:34:52;102239.41;;;10.06;100.00
80712;BME280;70078;51.596;5.678;2024-02-04T04:37:20;102212.53;;;9.97;100.00
80712;BME280;70078;51.596;5.678;2024-02-04T04:39:45;102216.16;;;9.96;100.00
80712;BME280;70078;51.596;5.678;2024-02-04T04:42:11;102178.34;;;9.70;100.00
80712;BME280;70078;51.596;5.678;2024-02-04T04:44:36;102238.16;;;10.10;100.00
80712;BME280;70078;51.596;5.678;2024-02-04T04:47:01;102228.34;;;10.10;100.00
80712;BME280;70078;51.596;5.678;2024-02-04T04:49:27;102203.09;;;9.93;100.00
80712;BME280;70078;51.596;5.678;2024-02-04T04:51:52;102217.44;;;10.13;100.00
80712;BME280;70078;51.596;5.678;2024-02-04T04:54:17;102087.94;;;9.47;100.00
80712;BME280;70078;51.596;5.678;2024-02-04T04:56:43;102208.44;;;10.14;100.00
80712;BME280;70078;51.596;5.678;2024-02-04T04:59:09;102201.59;;;10.00;100.00
80712;BME280;70078;51.596;5.678;2024-02-04T05:01:34;102131.03;;;9.52;100.00
80712;BME280;70078;51.596;5.678;2024-02-04T05:04:00;102212.19;;;10.12;100.00
80712;BME280;70078;51.596;5.678;2024-02-04T05:06:25;102147.66;;;9.76;100.00
80712;BME280;70078;51.596;5.678;2024-02-04T05:08:51;102202.34;;;10.23;100.00
80712;BME280;70078;51.596;5.678;2024-02-04T05:11:16;102189.25;;;10.20;100.00
80712;BME280;70078;51.596;5.678;2024-02-04T05:13:41;102145.31;;;9.83;100.00
80712;BME280;70078;51.596;5.678;2024-02-04T05:16:07;102196.16;;;10.23;100.00
80712;BME280;70078;51.596;5.678;2024-02-04T05:18:32;102174.72;;;9.92;100.00
80712;BME280;70078;51.596;5.678;2024-02-04T05:20:58;102210.22;;;10.25;100.00
80712;BME280;70078;51.596;5.678;2024-02-04T05:23:36;102116.75;;;9.73;100.00
80712;BME280;70078;51.596;5.678;2024-02-04T05:26:09;102069.50;;;9.43;100.00
80712;BME280;70078;51.596;5.678;2024-02-04T05:28:38;102105.63;;;9.68;100.00
80712;BME280;70078;51.596;5.678;2024-02-04T05:31:03;102063.00;;;9.36;100.00
80712;BME280;70078;51.596;5.678;2024-02-04T05:33:33;102109.00;;;9.50;100.00
80712;BME280;70078;51.596;5.678;2024-02-04T05:35:59;102173.75;;;9.93;100.00
80712;BME280;70078;51.596;5.678;2024-02-04T05:38:24;102056.25;;;9.32;100.00
80712;BME280;70078;51.596;5.678;2024-02-04T05:40:50;102198.34;;;10.18;100.00
80712;BME280;70078;51.596;5.678;2024-02-04T05:43:15;102196.50;;;10.18;100.00
80712;BME280;70078;51.596;5.678;2024-02-04T05:45:41;102199.78;;;10.22;100.00
80712;BME280;70078;51.596;5.678;2024-02-04T05:48:07;102107.91;;;9.73;100.00
80712;BME280;70078;51.596;5.678;2024-02-04T05:50:33;102129.75;;;9.88;100.00
80712;BME280;70078;51.596;5.678;2024-02-04T05:52:58;102189.00;;;10.23;100.00
80712;BME280;70078;51.596;5.678;2024-02-04T05:55:24;102165.28;;;9.88;100.00
80712;BME280;70078;51.596;5.678;2024-02-04T05:57:49;102207.41;;;10.26;100.00
80712;BME280;70078;51.596;5.678;2024-02-04T06:00:15;102100.31;;;9.68;100.00
80712;BME280;70078;51.596;5.678;2024-02-04T06:02:40;102192.66;;;10.22;100.00
80712;BME280;70078;51.596;5.678;2024-02-04T06:05:08;102155.00;;;10.05;100.00
80712;BME280;70078;51.596;5.678;2024-02-04T06:07:36;102184.25;;;10.27;100.00
80712;BME280;70078;51.596;5.678;2024-02-04T06:10:02;102150.25;;;10.08;100.00
80712;BME280;70078;51.596;5.678;2024-02-04T06:12:32;102164.63;;;10.17;100.00
80712;BME280;70078;51.596;5.678;2024-02-04T06:14:57;102168.81;;;10.31;100.00
80712;BME280;70078;51.596;5.678;2024-02-04T06:17:23;102150.22;;;9.98;100.00
80712;BME280;70078;51.596;5.678;2024-02-04T06:19:48;102180.16;;;10.23;100.00
80712;BME280;70078;51.596;5.678;2024-02-04T06:22:17;102129.91;;;9.86;100.00
80712;BME280;70078;51.596;5.678;2024-02-04T06:24:42;102058.63;;;9.47;100.00
80712;BME280;70078;51.596;5.678;2024-02-04T06:27:08;102182.47;;;10.16;100.00
80712;BME280;70078;51.596;5.678;2024-02-04T06:29:33;102180.78;;;10.15;100.00
80712;BME280;70078;51.596;5.678;2024-02-04T06:31:59;102174.47;;;10.16;100.00
80712;BME280;70078;51.596;5.678;2024-02-04T06:34:24;102166.47;;;10.16;100.00
80712;BME280;70078;51.596;5.678;2024-02-04T06:36:50;102094.53;;;9.84;100.00
80712;BME280;70078;51.596;5.678;2024-02-04T06:39:16;102003.09;;;9.31;100.00
80712;BME280;70078;51.596;5.678;2024-02-04T06:41:41;102145.09;;;10.16;100.00
80712;BME280;70078;51.596;5.678;2024-02-04T06:44:06;102064.66;;;9.69;100.00
80712;BME280;70078;51.596;5.678;2024-02-04T06:46:31;102146.56;;;10.20;100.00
80712;BME280;70078;51.596;5.678;2024-02-04T06:48:57;102110.84;;;9.91;100.00
80712;BME280;70078;51.596;5.678;2024-02-04T06:51:23;102133.97;;;10.11;100.00
80712;BME280;70078;51.596;5.678;2024-02-04T06:53:48;102141.31;;;10.19;100.00
80712;BME280;70078;51.596;5.678;2024-02-04T06:56:14;102077.41;;;9.66;100.00
80712;BME280;70078;51.596;5.678;2024-02-04T06:58:40;102157.28;;;10.09;100.00
80712;BME280;70078;51.596;5.678;2024-02-04T07:01:06;102129.09;;;9.95;100.00
80712;BME280;70078;51.596;5.678;2024-02-04T07:03:32;102090.94;;;9.53;100.00
80712;BME280;70078;51.596;5.678;2024-02-04T07:06:00;102019.59;;;9.25;100.00
80712;BME280;70078;51.596;5.678;2024-02-04T07:08:27;102167.56;;;10.14;100.00
80712;BME280;70078;51.596;5.678;2024-02-04T07:10:52;102191.13;;;10.09;100.00
80712;BME280;70078;51.596;5.678;2024-02-04T07:13:18;102117.19;;;9.58;100.00
80712;BME280;70078;51.596;5.678;2024-02-04T07:15:44;102088.91;;;9.45;100.00
80712;BME280;70078;51.596;5.678;2024-02-04T07:18:11;102175.69;;;10.12;100.00
80712;BME280;70078;51.596;5.678;2024-02-04T07:20:42;102135.50;;;9.83;100.00
80712;BME280;70078;51.596;5.678;2024-02-04T07:23:08;102176.44;;;10.14;100.00
80712;BME280;70078;51.596;5.678;2024-02-04T07:25:34;102101.94;;;9.60;100.00
80712;BME280;70078;51.596;5.678;2024-02-04T07:28:00;102109.59;;;9.74;100.00
80712;BME280;70078;51.596;5.678;2024-02-04T07:37:05;102115.00;;;9.84;100.00
80712;BME280;70078;51.596;5.678;2024-02-04T07:44:41;102162.88;;;10.27;100.00
80712;BME280;70078;51.596;5.678;2024-02-04T07:47:07;102070.84;;;9.70;100.00
80712;BME280;70078;51.596;5.678;2024-02-04T07:49:36;102086.50;;;9.84;100.00
80712;BME280;70078;51.596;5.678;2024-02-04T07:52:02;102043.59;;;9.45;100.00
80712;BME280;70078;51.596;5.678;2024-02-04T07:54:28;102166.69;;;10.24;100.00
80712;BME280;70078;51.596;5.678;2024-02-04T07:56:54;102110.44;;;9.95;100.00
80712;BME280;70078;51.596;5.678;2024-02-04T07:59:22;102001.72;;;9.15;100.00
80712;BME280;70078;51.596;5.678;2024-02-04T08:01:47;102107.72;;;9.86;100.00
80712;BME280;70078;51.596;5.678;2024-02-04T08:04:15;102036.69;;;9.43;100.00
80712;BME280;70078;51.596;5.678;2024-02-04T08:06:44;102118.00;;;9.90;100.00
80712;BME280;70078;51.596;5.678;2024-02-04T08:09:09;102156.25;;;10.21;100.00
80712;BME280;70078;51.596;5.678;2024-02-04T08:11:41;102077.59;;;9.74;100.00
80712;BME280;70078;51.596;5.678;2024-02-04T08:14:06;102113.94;;;9.96;100.00
80712;BME280;70078;51.596;5.678;2024-02-04T08:16:32;102060.19;;;9.70;100.00
80712;BME280;70078;51.596;5.678;2024-02-04T08:18:57;102148.97;;;10.23;100.00
80712;BME280;70078;51.596;5.678;2024-02-04T08:21:23;101985.59;;;9.17;100.00
80712;BME280;70078;51.596;5.678;2024-02-04T08:23:49;102134.66;;;10.24;100.00
80712;BME280;70078;51.596;5.678;2024-02-04T08:26:28;101959.94;;;9.16;100.00
80712;BME280;70078;51.596;5.678;2024-02-04T08:28:54;101988.28;;;9.38;100.00
80712;BME280;70078;51.596;5.678;2024-02-04T08:34:45;102084.50;;;9.97;100.00
80712;BME280;70078;51.596;5.678;2024-02-04T08:37:13;102060.56;;;9.86;100.00
80712;BME280;70078;51.596;5.678;2024-02-04T08:39:41;102046.13;;;9.68;100.00
80712;BME280;70078;51.596;5.678;2024-02-04T08:42:10;101996.34;;;9.48;100.00
80712;BME280;70078;51.596;5.678;2024-02-04T08:44:36;102093.13;;;9.90;100.00
80712;BME280;70078;51.596;5.678;2024-02-04T08:47:01;102153.19;;;10.26;100.00
80712;BME280;70078;51.596;5.678;2024-02-04T08:49:29;102092.28;;;9.89;100.00
80712;BME280;70078;51.596;5.678;2024-02-04T08:51:54;102026.78;;;9.45;100.00
80712;BME280;70078;51.596;5.678;2024-02-04T08:54:20;102042.72;;;9.66;100.00
80712;BME280;70078;51.596;5.678;2024-02-04T08:56:45;102155.06;;;10.35;100.00
80712;BME280;70078;51.596;5.678;2024-02-04T08:59:11;102099.25;;;10.01;100.00
80712;BME280;70078;51.596;5.678;2024-02-04T09:01:36;102149.19;;;10.41;100.00
80712;BME280;70078;51.596;5.678;2024-02-04T09:04:02;102098.03;;;10.06;100.00
80712;BME280;70078;51.596;5.678;2024-02-04T09:06:27;102160.34;;;10.46;100.00
80712;BME280;70078;51.596;5.678;2024-02-04T09:08:53;102163.97;;;10.45;100.00
80712;BME280;70078;51.596;5.678;2024-02-04T09:11:20;102098.25;;;10.02;100.00
80712;BME280;70078;51.596;5.678;2024-02-04T09:13:46;102149.03;;;10.33;100.00
80712;BME280;70078;51.596;5.678;2024-02-04T09:16:12;102137.78;;;10.30;100.00
80712;BME280;70078;51.596;5.678;2024-02-04T09:18:38;102101.44;;;10.17;100.00
80712;BME280;70078;51.596;5.678;2024-02-04T09:21:03;102080.38;;;9.93;100.00
80712;BME280;70078;51.596;5.678;2024-02-04T09:23:28;102118.25;;;10.29;100.00
80712;BME280;70078;51.596;5.678;2024-02-04T09:25:54;102059.22;;;10.01;100.00
80712;BME280;70078;51.596;5.678;2024-02-04T09:28:19;102150.69;;;10.65;100.00
80712;BME280;70078;51.596;5.678;2024-02-04T09:30:45;102110.59;;;10.45;100.00
80712;BME280;70078;51.596;5.678;2024-02-04T09:33:10;102116.91;;;10.44;100.00
80712;BME280;70078;51.596;5.678;2024-02-04T09:35:35;102157.34;;;10.70;100.00
80712;BME280;70078;51.596;5.678;2024-02-04T09:38:01;102127.22;;;10.59;100.00
80712;BME280;70078;51.596;5.678;2024-02-04T09:40:26;102144.28;;;10.77;100.00
80712;BME280;70078;51.596;5.678;2024-02-04T09:42:57;102103.88;;;10.51;100.00
80712;BME280;70078;51.596;5.678;2024-02-04T09:45:23;102062.75;;;10.33;99.78
80712;BME280;70078;51.596;5.678;2024-02-04T09:47:53;102129.50;;;10.73;99.70
80712;BME280;70078;51.596;5.678;2024-02-04T09:50:22;102080.53;;;10.43;99.17
80712;BME280;70078;51.596;5.678;2024-02-04T09:52:56;102031.66;;;10.22;98.61
80712;BME280;70078;51.596;5.678;2024-02-04T09:55:24;102087.53;;;10.44;99.40
80712;BME280;70078;51.596;5.678;2024-02-04T09:57:50;102003.50;;;9.98;98.50
80712;BME280;70078;51.596;5.678;2024-02-04T10:00:19;102087.41;;;10.46;98.40
80712;BME280;70078;51.596;5.678;2024-02-04T10:02:47;102100.53;;;10.59;99.67
80712;BME280;70078;51.596;5.678;2024-02-04T10:05:14;102115.66;;;10.48;100.00
80712;BME280;70078;51.596;5.678;2024-02-04T10:07:40;102012.94;;;9.82;99.79
80712;BME280;70078;51.596;5.678;2024-02-04T10:10:22;102172.38;;;10.71;100.00
80712;BME280;70078;51.596;5.678;2024-02-04T10:12:48;102039.22;;;9.86;100.00
80712;BME280;70078;51.596;5.678;2024-02-04T10:15:16;102097.59;;;10.10;100.00
80712;BME280;70078;51.596;5.678;2024-02-04T10:17:45;102142.41;;;10.58;100.00
80712;BME280;70078;51.596;5.678;2024-02-04T10:20:18;102091.81;;;10.26;100.00
80712;BME280;70078;51.596;5.678;2024-02-04T10:22:43;102100.91;;;10.44;100.00
80712;BME280;70078;51.596;5.678;2024-02-04T10:25:09;102167.38;;;10.88;100.00
80712;BME280;70078;51.596;5.678;2024-02-04T10:27:37;102068.06;;;10.23;100.00
80712;BME280;70078;51.596;5.678;2024-02-04T10:30:03;102164.31;;;10.92;100.00
80712;BME280;70078;51.596;5.678;2024-02-04T10:32:34;102083.63;;;10.48;100.00
80712;BME280;70078;51.596;5.678;2024-02-04T10:35:02;102029.81;;;10.13;100.00
80712;BME280;70078;51.596;5.678;2024-02-04T10:37:28;102187.81;;;10.98;100.00
80712;BME280;70078;51.596;5.678;2024-02-04T10:39:53;102167.44;;;10.97;100.00
80712;BME280;70078;51.596;5.678;2024-02-04T10:45:11;102087.25;;;10.38;100.00
80712;BME280;70078;51.596;5.678;2024-02-04T10:47:42;102163.63;;;11.00;100.00
80712;BME280;70078;51.596;5.678;2024-02-04T10:50:12;102106.03;;;10.67;100.00
80712;BME280;70078;51.596;5.678;2024-02-04T10:52:42;102126.84;;;10.73;100.00
80712;BME280;70078;51.596;5.678;2024-02-04T10:55:11;102049.09;;;10.26;100.00
80712;BME280;70078;51.596;5.678;2024-02-04T10:57:39;102159.94;;;10.91;100.00
80712;BME280;70078;51.596;5.678;2024-02-04T11:00:05;102131.78;;;10.77;100.00
80712;BME280;70078;51.596;5.678;2024-02-04T11:02:42;102138.28;;;10.84;100.00
80712;BME280;70078;51.596;5.678;2024-02-04T11:05:12;102101.63;;;10.56;100.00
80712;BME280;70078;51.596;5.678;2024-02-04T11:07:39;102087.25;;;10.47;100.00
80712;BME280;70078;51.596;5.678;2024-02-04T11:10:04;102153.91;;;10.89;100.00
80712;BME280;70078;51.596;5.678;2024-02-04T11:12:31;102032.34;;;10.14;100.00
80712;BME280;70078;51.596;5.678;2024-02-04T11:15:01;102068.13;;;10.42;100.00
80712;BME280;70078;51.596;5.678;2024-02-04T11:21:03;102132.22;;;10.82;100.00
80712;BME280;70078;51.596;5.678;2024-02-04T11:23:45;102039.16;;;10.28;100.00
80712;BME280;70078;51.596;5.678;2024-02-04T11:26:16;102135.75;;;10.83;100.00
80712;BME280;70078;51.596;5.678;2024-02-04T11:28:43;101959.03;;;9.78;100.00
80712;BME280;70078;51.596;5.678;2024-02-04T11:31:18;102054.75;;;10.33;100.00
80712;BME280;70078;51.596;5.678;2024-02-04T11:33:46;102072.22;;;10.46;100.00
80712;BME280;70078;51.596;5.678;2024-02-04T11:36:14;102120.56;;;10.83;100.00
80712;BME280;70078;51.596;5.678;2024-02-04T11:38:43;102104.91;;;10.69;100.00
80712;BME280;70078;51.596;5.678;2024-02-04T11:41:08;102127.72;;;10.83;100.00
80712;BME280;70078;51.596;5.678;2024-02-04T11:43:34;102065.59;;;10.41;100.00
80712;BME280;70078;51.596;5.678;2024-02-04T11:46:03;101999.19;;;10.17;100.00
80712;BME280;70078;51.596;5.678;2024-02-04T11:48:30;102021.72;;;10.24;100.00
80712;BME280;70078;51.596;5.678;2024-02-04T11:50:57;102011.28;;;10.21;100.00
80712;BME280;70078;51.596;5.678;2024-02-04T11:53:23;102082.41;;;10.62;100.00
80712;BME280;70078;51.596;5.678;2024-02-04T11:55:51;102005.13;;;10.20;100.00
80712;BME280;70078;51.596;5.678;2024-02-04T11:58:18;102026.25;;;10.33;100.00
80712;BME280;70078;51.596;5.678;2024-02-04T12:00:45;102111.56;;;10.84;100.00
80712;BME280;70078;51.596;5.678;2024-02-04T12:03:11;102070.72;;;10.53;100.00
80712;BME280;70078;51.596;5.678;2024-02-04T12:05:36;102113.25;;;10.86;100.00
80712;BME280;70078;51.596;5.678;2024-02-04T12:08:04;102042.59;;;10.49;100.00
80712;BME280;70078;51.596;5.678;2024-02-04T12:10:31;102027.38;;;10.40;100.00
80712;BME280;70078;51.596;5.678;2024-02-04T12:12:59;101999.13;;;10.28;100.00
80712;BME280;70078;51.596;5.678;2024-02-04T12:15:25;102075.28;;;10.82;100.00
80712;BME280;70078;51.596;5.678;2024-02-04T12:17:50;102093.84;;;10.93;100.00
80712;BME280;70078;51.596;5.678;2024-02-04T12:20:23;102007.84;;;10.40;100.00
80712;BME280;70078;51.596;5.678;2024-02-04T12:22:48;101980.00;;;10.23;100.00
80712;BME280;70078;51.596;5.678;2024-02-04T12:25:14;102092.63;;;10.97;100.00
80712;BME280;70078;51.596;5.678;2024-02-04T12:27:39;102028.28;;;10.50;100.00
80712;BME280;70078;51.596;5.678;2024-02-04T12:33:03;102002.97;;;10.45;100.00
80712;BME280;70078;51.596;5.678;2024-02-04T12:35:49;101936.69;;;10.10;100.00
80712;BME280;70078;51.596;5.678;2024-02-04T12:38:42;101959.31;;;10.15;100.00
80712;BME280;70078;51.596;5.678;2024-02-04T12:44:45;102083.59;;;10.98;100.00
80712;BME280;70078;51.596;5.678;2024-02-04T12:47:11;102043.88;;;10.65;100.00
80712;BME280;70078;51.596;5.678;2024-02-04T12:49:37;102018.72;;;10.57;100.00
80712;BME280;70078;51.596;5.678;2024-02-04T12:52:06;101995.66;;;10.56;100.00
80712;BME280;70078;51.596;5.678;2024-02-04T12:54:40;102026.91;;;10.75;100.00
80712;BME280;70078;51.596;5.678;2024-02-04T12:57:06;102075.28;;;10.92;100.00
80712;BME280;70078;51.596;5.678;2024-02-04T12:59:32;102063.38;;;10.96;100.00
80712;BME280;70078;51.596;5.678;2024-02-04T13:02:03;101943.56;;;10.12;100.00
80712;BME280;70078;51.596;5.678;2024-02-04T13:04:48;101978.34;;;10.41;100.00
80712;BME280;70078;51.596;5.678;2024-02-04T13:07:14;102051.25;;;10.82;100.00
80712;BME280;70078;51.596;5.678;2024-02-04T13:10:04;102063.47;;;10.94;100.00
80712;BME280;70078;51.596;5.678;2024-02-04T13:12:32;101977.94;;;10.36;100.00
80712;BME280;70078;51.596;5.678;2024-02-04T13:15:02;101953.19;;;10.24;100.00